sensor_id;sensor_type;location;lat;lon;timestamp;pressure;altitude;pressure_sealevel;temperature;humidity
39555;BME280;25231;48.746;9.234;2022-09-28T00:02:07;95093.44;;;7.91;100.00
39555;BME280;25231;48.746;9.234;2022-09-28T00:04:32;95089.56;;;7.99;100.00
39555;BME280;25231;48.746;9.234;2022-09-28T00:06:59;95086.13;;;7.93;100.00
39555;BME280;25231;48.746;9.234;2022-09-28T00:09:24;95077.69;;;7.81;100.00
39555;BME280;25231;48.746;9.234;2022-09-28T00:11:50;95076.66;;;7.82;100.00
39555;BME280;25231;48.746;9.234;2022-09-28T00:14:17;95070.97;;;7.85;100.00
39555;BME280;25231;48.746;9.234;2022-09-28T00:16:44;95063.69;;;7.92;100.00
39555;BME280;25231;48.746;9.234;2022-09-28T00:19:10;95054.84;;;7.98;100.00
39555;BME280;25231;48.746;9.234;2022-09-28T00:21:38;95057.16;;;7.89;100.00
39555;BME280;25231;48.746;9.234;2022-09-28T00:24:05;95041.78;;;7.93;100.00
39555;BME280;25231;48.746;9.234;2022-09-28T00:26:43;95042.56;;;7.93;100.00
39555;BME280;25231;48.746;9.234;2022-09-28T00:29:19;95045.16;;;7.88;100.00
39555;BME280;25231;48.746;9.234;2022-09-28T00:31:45;95028.22;;;7.91;100.00
39555;BME280;25231;48.746;9.234;2022-09-28T00:34:10;95019.06;;;7.88;100.00
39555;BME280;25231;48.746;9.234;2022-09-28T00:36:35;95019.34;;;7.92;100.00
39555;BME280;25231;48.746;9.234;2022-09-28T00:39:06;95015.69;;;7.93;100.00
39555;BME280;25231;48.746;9.234;2022-09-28T00:41:32;95010.03;;;8.06;100.00
39555;BME280;25231;48.746;9.234;2022-09-28T00:49:24;94989.97;;;8.12;100.00
39555;BME280;25231;48.746;9.234;2022-09-28T00:51:53;94979.44;;;7.91;100.00
39555;BME280;25231;48.746;9.234;2022-09-28T00:54:19;94981.28;;;7.91;100.00
39555;BME280;25231;48.746;9.234;2022-09-28T00:56:46;94979.75;;;8.00;100.00
39555;BME280;25231;48.746;9.234;2022-09-28T00:59:13;94970.34;;;7.99;100.00
39555;BME280;25231;48.746;9.234;2022-09-28T01:01:38;94949.47;;;7.99;100.00
39555;BME280;25231;48.746;9.234;2022-09-28T01:04:05;94949.25;;;8.06;100.00
39555;BME280;25231;48.746;9.234;2022-09-28T01:06:32;94947.41;;;8.06;100.00
39555;BME280;25231;48.746;9.234;2022-09-28T01:09:03;94951.31;;;8.04;100.00
39555;BME280;25231;48.746;9.234;2022-09-28T01:11:32;94945.84;;;8.05;100.00
39555;BME280;25231;48.746;9.234;2022-09-28T01:13:59;94945.06;;;8.10;100.00
39555;BME280;25231;48.746;9.234;2022-09-28T01:21:53;94920.03;;;8.09;100.00
39555;BME280;25231;48.746;9.234;2022-09-28T01:25:05;94917.97;;;8.26;100.00
39555;BME280;25231;48.746;9.234;2022-09-28T01:27:34;94903.09;;;8.16;100.00
39555;BME280;25231;48.746;9.234;2022-09-28T01:30:10;94912.75;;;8.21;100.00
39555;BME280;25231;48.746;9.234;2022-09-28T01:32:57;94899.72;;;8.21;100.00
39555;BME280;25231;48.746;9.234;2022-09-28T01:35:41;94898.91;;;8.20;100.00
39555;BME280;25231;48.746;9.234;2022-09-28T01:38:16;94894.53;;;8.31;100.00
39555;BME280;25231;48.746;9.234;2022-09-28T01:40:45;94891.91;;;8.31;100.00
39555;BME280;25231;48.746;9.234;2022-09-28T01:43:15;94891.09;;;8.25;100.00
39555;BME280;25231;48.746;9.234;2022-09-28T01:45:55;94884.88;;;8.31;100.00
39555;BME280;25231;48.746;9.234;2022-09-28T01:48:39;94879.38;;;8.28;100.00
39555;BME280;25231;48.746;9.234;2022-09-28T01:51:11;94873.13;;;8.29;100.00
39555;BME280;25231;48.746;9.234;2022-09-28T01:53:48;94868.19;;;8.38;100.00
39555;BME280;25231;48.746;9.234;2022-09-28T01:56:38;94861.41;;;8.37;100.00
39555;BME280;25231;48.746;9.234;2022-09-28T01:59:12;94857.50;;;8.39;100.00
39555;BME280;25231;48.746;9.234;2022-09-28T02:01:43;94851.22;;;8.40;100.00
39555;BME280;25231;48.746;9.234;2022-09-28T02:04:49;94861.69;;;8.35;100.00
39555;BME280;25231;48.746;9.234;2022-09-28T02:07:26;94847.84;;;8.50;100.00
39555;BME280;25231;48.746;9.234;2022-09-28T02:10:06;94838.44;;;8.54;100.00
39555;BME280;25231;48.746;9.234;2022-09-28T02:12:38;94843.41;;;8.60;100.00
39555;BME280;25231;48.746;9.234;2022-09-28T02:15:11;94831.13;;;8.61;100.00
39555;BME280;25231;48.746;9.234;2022-09-28T02:17:38;94836.34;;;8.61;100.00
39555;BME280;25231;48.746;9.234;2022-09-28T02:20:05;94832.69;;;8.57;100.00
39555;BME280;25231;48.746;9.234;2022-09-28T02:22:54;94824.34;;;8.65;100.00
39555;BME280;25231;48.746;9.234;2022-09-28T02:28:00;94830.09;;;8.57;100.00
39555;BME280;25231;48.746;9.234;2022-09-28T02:30:27;94822.25;;;8.57;100.00
39555;BME280;25231;48.746;9.234;2022-09-28T02:32:56;94824.63;;;8.63;100.00
39555;BME280;25231;48.746;9.234;2022-09-28T02:35:24;94813.09;;;8.54;100.00
39555;BME280;25231;48.746;9.234;2022-09-28T02:37:49;94809.69;;;8.64;100.00
39555;BME280;25231;48.746;9.234;2022-09-28T02:40:18;94806.59;;;8.67;100.00
39555;BME280;25231;48.746;9.234;2022-09-28T02:43:09;94802.16;;;8.67;100.00
39555;BME280;25231;48.746;9.234;2022-09-28T02:51:37;94792.50;;;8.63;100.00
39555;BME280;25231;48.746;9.234;2022-09-28T03:05:07;94780.97;;;8.64;100.00
39555;BME280;25231;48.746;9.234;2022-09-28T03:07:39;94779.44;;;8.58;100.00
39555;BME280;25231;48.746;9.234;2022-09-28T03:12:43;94785.16;;;8.65;100.00
39555;BME280;25231;48.746;9.234;2022-09-28T03:15:29;94777.59;;;8.63;100.00
39555;BME280;25231;48.746;9.234;2022-09-28T03:17:56;94784.38;;;8.64;100.00
39555;BME280;25231;48.746;9.234;2022-09-28T03:20:21;94776.81;;;8.68;100.00
39555;BME280;25231;48.746;9.234;2022-09-28T03:22:47;94777.84;;;8.72;100.00
39555;BME280;25231;48.746;9.234;2022-09-28T03:25:12;94773.94;;;8.64;100.00
39555;BME280;25231;48.746;9.234;2022-09-28T03:27:40;94768.22;;;8.57;100.00
39555;BME280;25231;48.746;9.234;2022-09-28T03:30:06;94773.69;;;8.61;100.00
39555;BME280;25231;48.746;9.234;2022-09-28T03:32:31;94769.50;;;8.65;100.00
39555;BME280;25231;48.746;9.234;2022-09-28T03:34:56;94773.94;;;8.64;100.00
39555;BME280;25231;48.746;9.234;2022-09-28T03:37:22;94770.28;;;8.65;100.00
39555;BME280;25231;48.746;9.234;2022-09-28T03:39:47;94766.09;;;8.69;100.00
39555;BME280;25231;48.746;9.234;2022-09-28T03:42:13;94771.59;;;8.68;100.00
39555;BME280;25231;48.746;9.234;2022-09-28T03:44:38;94764.78;;;8.67;100.00
39555;BME280;25231;48.746;9.234;2022-09-28T03:47:03;94766.88;;;8.70;100.00
39555;BME280;25231;48.746;9.234;2022-09-28T03:49:30;94767.16;;;8.63;100.00
39555;BME280;25231;48.746;9.234;2022-09-28T03:51:56;94765.31;;;8.64;100.00
39555;BME280;25231;48.746;9.234;2022-09-28T03:54:21;94767.44;;;8.57;100.00
39555;BME280;25231;48.746;9.234;2022-09-28T03:56:47;94764.53;;;8.58;100.00
39555;BME280;25231;48.746;9.234;2022-09-28T03:59:12;94771.63;;;8.58;100.00
39555;BME280;25231;48.746;9.234;2022-09-28T04:01:38;94767.41;;;8.62;100.00
39555;BME280;25231;48.746;9.234;2022-09-28T04:04:03;94761.16;;;8.68;100.00
39555;BME280;25231;48.746;9.234;2022-09-28T04:06:28;94763.22;;;8.66;100.00
39555;BME280;25231;48.746;9.234;2022-09-28T04:08:54;94767.66;;;8.65;100.00
39555;BME280;25231;48.746;9.234;2022-09-28T04:11:19;94772.13;;;8.60;100.00
39555;BME280;25231;48.746;9.234;2022-09-28T04:13:47;94779.94;;;8.70;100.00
39555;BME280;25231;48.746;9.234;2022-09-28T04:16:14;94786.22;;;8.69;100.00
39555;BME280;25231;48.746;9.234;2022-09-28T04:18:40;94794.31;;;8.62;100.00
39555;BME280;25231;48.746;9.234;2022-09-28T04:21:09;94796.41;;;8.60;100.00
39555;BME280;25231;48.746;9.234;2022-09-28T04:23:36;94788.59;;;8.35;100.00
39555;BME280;25231;48.746;9.234;2022-09-28T04:26:03;94793.03;;;8.34;100.00
39555;BME280;25231;48.746;9.234;2022-09-28T04:28:28;94791.19;;;8.30;100.00
39555;BME280;25231;48.746;9.234;2022-09-28T04:31:17;94798.25;;;8.34;100.00
39555;BME280;25231;48.746;9.234;2022-09-28T04:33:43;94793.03;;;8.34;100.00
39555;BME280;25231;48.746;9.234;2022-09-28T04:36:09;94796.38;;;8.10;100.00
39555;BME280;25231;48.746;9.234;2022-09-28T04:38:35;94790.09;;;8.21;100.00
39555;BME280;25231;48.746;9.234;2022-09-28T04:41:01;94794.28;;;8.17;100.00
39555;BME280;25231;48.746;9.234;2022-09-28T04:43:26;94792.72;;;8.21;100.00
39555;BME280;25231;48.746;9.234;2022-09-28T04:45:59;94782.81;;;8.18;100.00
39555;BME280;25231;48.746;9.234;2022-09-28T04:48:26;94809.16;;;8.11;100.00
39555;BME280;25231;48.746;9.234;2022-09-28T04:50:55;94800.28;;;8.22;100.00
39555;BME280;25231;48.746;9.234;2022-09-28T04:53:21;94807.59;;;8.15;100.00
39555;BME280;25231;48.746;9.234;2022-09-28T04:56:04;94815.41;;;8.10;100.00
39555;BME280;25231;48.746;9.234;2022-09-28T04:58:30;94810.44;;;8.04;100.00
39555;BME280;25231;48.746;9.234;2022-09-28T05:00:58;94806.53;;;8.01;100.00
39555;BME280;25231;48.746;9.234;2022-09-28T05:03:24;94806.25;;;7.98;100.00
39555;BME280;25231;48.746;9.234;2022-09-28T05:05:49;94812.53;;;7.97;100.00
39555;BME280;25231;48.746;9.234;2022-09-28T05:08:15;94805.72;;;7.85;100.00
39555;BME280;25231;48.746;9.234;2022-09-28T05:10:41;94799.97;;;7.78;100.00
39555;BME280;25231;48.746;9.234;2022-09-28T05:13:07;94805.19;;;7.83;100.00
39555;BME280;25231;48.746;9.234;2022-09-28T05:15:34;94800.25;;;7.87;100.00
39555;BME280;25231;48.746;9.234;2022-09-28T05:18:00;94794.50;;;7.80;100.00
39555;BME280;25231;48.746;9.234;2022-09-28T05:20:25;94794.75;;;7.78;100.00
39555;BME280;25231;48.746;9.234;2022-09-28T05:22:50;94800.47;;;7.80;100.00
39555;BME280;25231;48.746;9.234;2022-09-28T05:25:17;94799.44;;;7.81;100.00
39555;BME280;25231;48.746;9.234;2022-09-28T05:27:42;94811.44;;;7.82;100.00
39555;BME280;25231;48.746;9.234;2022-09-28T05:30:08;94814.84;;;7.93;100.00
39555;BME280;25231;48.746;9.234;2022-09-28T05:32:39;94818.78;;;7.85;100.00
39555;BME280;25231;48.746;9.234;2022-09-28T05:35:05;94811.69;;;7.86;100.00
39555;BME280;25231;48.746;9.234;2022-09-28T05:37:30;94811.19;;;7.79;100.00
39555;BME280;25231;48.746;9.234;2022-09-28T05:39:55;94812.22;;;7.73;100.00
39555;BME280;25231;48.746;9.234;2022-09-28T05:42:21;94809.06;;;7.71;100.00
39555;BME280;25231;48.746;9.234;2022-09-28T05:44:46;94808.56;;;7.69;100.00
39555;BME280;25231;48.746;9.234;2022-09-28T05:47:12;94808.28;;;7.70;100.00
39555;BME280;25231;48.746;9.234;2022-09-28T05:49:37;94811.38;;;7.57;100.00
39555;BME280;25231;48.746;9.234;2022-09-28T05:52:02;94811.16;;;7.69;100.00
39555;BME280;25231;48.746;9.234;2022-09-28T05:54:28;94822.19;;;7.91;100.00
39555;BME280;25231;48.746;9.234;2022-09-28T05:56:53;94823.69;;;7.77;100.00
39555;BME280;25231;48.746;9.234;2022-09-28T05:59:18;94821.63;;;7.79;100.00
39555;BME280;25231;48.746;9.234;2022-09-28T06:01:44;94829.44;;;7.74;100.00
39555;BME280;25231;48.746;9.234;2022-09-28T06:04:09;94829.94;;;7.81;100.00
39555;BME280;25231;48.746;9.234;2022-09-28T06:06:35;94835.44;;;7.79;100.00
39555;BME280;25231;48.746;9.234;2022-09-28T06:09:00;94834.38;;;7.75;100.00
39555;BME280;25231;48.746;9.234;2022-09-28T06:11:26;94832.03;;;7.74;100.00
39555;BME280;25231;48.746;9.234;2022-09-28T06:13:53;94828.66;;;7.73;100.00
39555;BME280;25231;48.746;9.234;2022-09-28T06:16:19;94834.91;;;7.77;100.00
39555;BME280;25231;48.746;9.234;2022-09-28T06:18:45;94829.22;;;7.85;100.00
39555;BME280;25231;48.746;9.234;2022-09-28T06:21:11;94827.88;;;7.88;100.00
39555;BME280;25231;48.746;9.234;2022-09-28T06:23:37;94830.25;;;7.84;100.00
39555;BME280;25231;48.746;9.234;2022-09-28T06:26:02;94838.06;;;7.89;100.00
39555;BME280;25231;48.746;9.234;2022-09-28T06:28:27;94843.56;;;7.93;100.00
39555;BME280;25231;48.746;9.234;2022-09-28T06:30:53;94846.44;;;7.97;100.00
39555;BME280;25231;48.746;9.234;2022-09-28T06:33:18;94835.19;;;7.86;100.00
39555;BME280;25231;48.746;9.234;2022-09-28T06:35:43;94852.19;;;8.04;100.00
39555;BME280;25231;48.746;9.234;2022-09-28T06:38:09;94849.41;;;8.36;100.00
39555;BME280;25231;48.746;9.234;2022-09-28T06:40:35;94850.16;;;8.31;100.00
39555;BME280;25231;48.746;9.234;2022-09-28T06:43:10;94861.09;;;8.28;100.00
39555;BME280;25231;48.746;9.234;2022-09-28T06:45:37;94863.41;;;8.19;100.00
39555;BME280;25231;48.746;9.234;2022-09-28T06:48:03;94863.69;;;8.08;100.00
39555;BME280;25231;48.746;9.234;2022-09-28T06:50:31;94869.72;;;8.18;100.00
39555;BME280;25231;48.746;9.234;2022-09-28T06:52:58;94871.50;;;8.08;100.00
39555;BME280;25231;48.746;9.234;2022-09-28T06:55:25;94873.09;;;8.19;100.00
39555;BME280;25231;48.746;9.234;2022-09-28T06:58:01;94872.91;;;8.36;100.00
39555;BME280;25231;48.746;9.234;2022-09-28T07:00:29;94878.63;;;8.38;100.00
39555;BME280;25231;48.746;9.234;2022-09-28T07:02:55;94883.56;;;8.29;100.00
39555;BME280;25231;48.746;9.234;2022-09-28T07:05:21;94883.28;;;8.25;100.00
39555;BME280;25231;48.746;9.234;2022-09-28T07:07:53;94899.22;;;8.29;100.00
39555;BME280;25231;48.746;9.234;2022-09-28T07:10:20;94902.13;;;8.32;100.00
39555;BME280;25231;48.746;9.234;2022-09-28T07:12:47;94908.31;;;8.16;100.00
39555;BME280;25231;48.746;9.234;2022-09-28T07:15:12;94918.22;;;8.14;100.00
39555;BME280;25231;48.746;9.234;2022-09-28T07:17:38;94915.34;;;8.06;100.00
39555;BME280;25231;48.746;9.234;2022-09-28T07:20:03;94928.94;;;8.13;100.00
39555;BME280;25231;48.746;9.234;2022-09-28T07:22:29;94923.97;;;8.16;100.00
39555;BME280;25231;48.746;9.234;2022-09-28T07:24:54;94923.44;;;8.19;100.00
39555;BME280;25231;48.746;9.234;2022-09-28T07:27:21;94930.28;;;8.30;100.00
39555;BME280;25231;48.746;9.234;2022-09-28T07:29:47;94926.91;;;8.30;100.00
39555;BME280;25231;48.746;9.234;2022-09-28T07:32:12;94927.72;;;8.41;100.00
39555;BME280;25231;48.746;9.234;2022-09-28T07:34:38;94938.94;;;8.41;100.00
39555;BME280;25231;48.746;9.234;2022-09-28T07:37:09;94941.28;;;8.38;100.00
39555;BME280;25231;48.746;9.234;2022-09-28T07:39:36;94942.63;;;8.50;100.00
39555;BME280;25231;48.746;9.234;2022-09-28T07:42:22;94950.97;;;8.52;100.00
39555;BME280;25231;48.746;9.234;2022-09-28T07:44:47;94952.56;;;8.63;100.00
39555;BME280;25231;48.746;9.234;2022-09-28T07:47:13;94953.38;;;8.69;100.00
39555;BME280;25231;48.746;9.234;2022-09-28T07:49:38;94951.25;;;8.66;100.00
39555;BME280;25231;48.746;9.234;2022-09-28T07:52:03;94959.06;;;8.61;100.00
39555;BME280;25231;48.746;9.234;2022-09-28T07:54:29;94951.50;;;8.69;100.00
39555;BME280;25231;48.746;9.234;2022-09-28T07:56:55;94958.34;;;9.06;100.00
39555;BME280;25231;48.746;9.234;2022-09-28T07:59:21;94957.81;;;9.09;100.00
39555;BME280;25231;48.746;9.234;2022-09-28T08:01:46;94968.53;;;9.17;100.00
39555;BME280;25231;48.746;9.234;2022-09-28T08:04:14;94963.81;;;9.14;100.00
39555;BME280;25231;48.746;9.234;2022-09-28T08:06:39;94960.66;;;9.33;100.00
39555;BME280;25231;48.746;9.234;2022-09-28T08:09:05;94969.53;;;9.57;100.00
39555;BME280;25231;48.746;9.234;2022-09-28T08:11:30;94963.25;;;9.48;100.00
39555;BME280;25231;48.746;9.234;2022-09-28T08:13:56;94973.19;;;9.56;100.00
39555;BME280;25231;48.746;9.234;2022-09-28T08:16:22;94977.88;;;9.59;100.00
39555;BME280;25231;48.746;9.234;2022-09-28T08:18:48;94985.25;;;9.52;100.00
39555;BME280;25231;48.746;9.234;2022-09-28T08:21:14;94987.59;;;9.43;100.00
39555;BME280;25231;48.746;9.234;2022-09-28T08:23:58;94991.78;;;9.49;100.00
39555;BME280;25231;48.746;9.234;2022-09-28T08:26:23;94995.41;;;9.53;100.00
39555;BME280;25231;48.746;9.234;2022-09-28T08:28:49;94995.16;;;9.50;100.00
39555;BME280;25231;48.746;9.234;2022-09-28T08:31:15;95001.72;;;9.32;100.00
39555;BME280;25231;48.746;9.234;2022-09-28T08:33:40;95010.88;;;9.25;100.00
39555;BME280;25231;48.746;9.234;2022-09-28T08:36:08;94992.53;;;9.55;100.00
39555;BME280;25231;48.746;9.234;2022-09-28T08:38:34;94996.19;;;9.69;100.00
39555;BME280;25231;48.746;9.234;2022-09-28T08:41:10;95004.53;;;9.91;100.00
39555;BME280;25231;48.746;9.234;2022-09-28T08:46:18;95002.06;;;10.25;100.00
39555;BME280;25231;48.746;9.234;2022-09-28T08:48:58;95007.84;;;10.22;100.00
39555;BME280;25231;48.746;9.234;2022-09-28T08:51:48;95005.28;;;9.97;100.00
39555;BME280;25231;48.746;9.234;2022-09-28T08:54:32;95016.38;;;10.48;100.00
39555;BME280;25231;48.746;9.234;2022-09-28T08:57:04;95011.75;;;10.35;100.00
39555;BME280;25231;48.746;9.234;2022-09-28T08:59:59;95025.13;;;10.23;100.00
39555;BME280;25231;48.746;9.234;2022-09-28T09:02:32;95026.78;;;9.79;100.00
39555;BME280;25231;48.746;9.234;2022-09-28T09:05:03;95024.97;;;9.69;100.00
39555;BME280;25231;48.746;9.234;2022-09-28T09:07:34;95035.72;;;9.57;100.00
39555;BME280;25231;48.746;9.234;2022-09-28T09:20:39;95032.72;;;10.15;100.00
39555;BME280;25231;48.746;9.234;2022-09-28T09:25:43;95044.16;;;10.44;100.00
39555;BME280;25231;48.746;9.234;2022-09-28T09:28:42;95045.25;;;10.92;100.00
39555;BME280;25231;48.746;9.234;2022-09-28T09:34:05;95058.06;;;10.39;100.00
39555;BME280;25231;48.746;9.234;2022-09-28T09:36:57;95056.03;;;10.21;100.00
39555;BME280;25231;48.746;9.234;2022-09-28T09:49:28;95066.56;;;10.70;100.00
39555;BME280;25231;48.746;9.234;2022-09-28T09:52:03;95075.53;;;10.59;100.00
39555;BME280;25231;48.746;9.234;2022-09-28T09:54:39;95071.53;;;10.77;100.00
39555;BME280;25231;48.746;9.234;2022-09-28T09:57:16;95079.47;;;10.57;100.00
39555;BME280;25231;48.746;9.234;2022-09-28T09:59:44;95082.50;;;10.84;100.00
39555;BME280;25231;48.746;9.234;2022-09-28T10:02:25;95082.97;;;10.96;100.00
39555;BME280;25231;48.746;9.234;2022-09-28T10:04:59;95082.13;;;11.06;100.00
39555;BME280;25231;48.746;9.234;2022-09-28T10:07:40;95081.47;;;11.29;100.00
39555;BME280;25231;48.746;9.234;2022-09-28T10:10:18;95087.97;;;11.71;100.00
39555;BME280;25231;48.746;9.234;2022-09-28T10:12:45;95080.75;;;11.57;99.14
39555;BME280;25231;48.746;9.234;2022-09-28T10:15:15;95073.75;;;11.48;99.30
39555;BME280;25231;48.746;9.234;2022-09-28T10:17:43;95078.13;;;11.18;99.73
39555;BME280;25231;48.746;9.234;2022-09-28T10:20:13;95067.78;;;11.32;98.57
39555;BME280;25231;48.746;9.234;2022-09-28T10:22:40;95066.63;;;11.48;100.00
39555;BME280;25231;48.746;9.234;2022-09-28T10:25:06;95068.41;;;11.58;100.00
39555;BME280;25231;48.746;9.234;2022-09-28T10:27:35;95062.19;;;11.83;98.87
39555;BME280;25231;48.746;9.234;2022-09-28T10:32:43;95064.13;;;11.67;98.05
39555;BME280;25231;48.746;9.234;2022-09-28T10:38:00;95071.34;;;11.85;98.74
39555;BME280;25231;48.746;9.234;2022-09-28T10:43:01;95072.41;;;11.50;98.09
39555;BME280;25231;48.746;9.234;2022-09-28T10:45:33;95074.09;;;11.70;95.93
39555;BME280;25231;48.746;9.234;2022-09-28T10:48:01;95073.84;;;11.66;95.96
39555;BME280;25231;48.746;9.234;2022-09-28T10:50:29;95073.63;;;11.97;96.91
39555;BME280;25231;48.746;9.234;2022-09-28T10:53:09;95068.72;;;11.85;96.14
39555;BME280;25231;48.746;9.234;2022-09-28T10:55:35;95078.25;;;11.71;95.46
39555;BME280;25231;48.746;9.234;2022-09-28T10:58:21;95071.72;;;12.02;94.60
39555;BME280;25231;48.746;9.234;2022-09-28T11:00:48;95071.03;;;11.92;94.15
39555;BME280;25231;48.746;9.234;2022-09-28T11:03:25;95068.22;;;11.83;92.45
39555;BME280;25231;48.746;9.234;2022-09-28T11:06:12;95070.47;;;11.95;91.43
39555;BME280;25231;48.746;9.234;2022-09-28T11:08:39;95077.03;;;11.97;94.16
39555;BME280;25231;48.746;9.234;2022-09-28T11:11:10;95069.78;;;11.84;95.13
39555;BME280;25231;48.746;9.234;2022-09-28T11:13:42;95069.63;;;11.76;91.04
39555;BME280;25231;48.746;9.234;2022-09-28T11:18:49;95067.16;;;11.84;91.90
39555;BME280;25231;48.746;9.234;2022-09-28T11:21:20;95069.47;;;11.91;90.93
39555;BME280;25231;48.746;9.234;2022-09-28T11:24:00;95062.56;;;11.66;91.25
39555;BME280;25231;48.746;9.234;2022-09-28T11:26:30;95064.16;;;11.96;91.05
39555;BME280;25231;48.746;9.234;2022-09-28T11:28:58;95071.34;;;11.85;90.39
39555;BME280;25231;48.746;9.234;2022-09-28T11:31:27;95059.72;;;11.62;90.42
39555;BME280;25231;48.746;9.234;2022-09-28T11:34:23;95062.22;;;11.78;90.74
39555;BME280;25231;48.746;9.234;2022-09-28T11:37:00;95068.94;;;11.89;89.09
39555;BME280;25231;48.746;9.234;2022-09-28T11:39:49;95064.47;;;12.18;87.01
39555;BME280;25231;48.746;9.234;2022-09-28T11:48:17;95064.69;;;12.22;80.82
39555;BME280;25231;48.746;9.234;2022-09-28T11:51:04;95061.41;;;12.35;80.78
39555;BME280;25231;48.746;9.234;2022-09-28T11:53:46;95055.28;;;12.16;81.62
39555;BME280;25231;48.746;9.234;2022-09-28T11:59:11;95056.59;;;12.42;80.62
39555;BME280;25231;48.746;9.234;2022-09-28T12:02:00;95056.03;;;12.21;82.29
39555;BME280;25231;48.746;9.234;2022-09-28T12:04:33;95050.19;;;12.29;82.44
39555;BME280;25231;48.746;9.234;2022-09-28T12:07:17;95059.81;;;12.10;83.40
39555;BME280;25231;48.746;9.234;2022-09-28T12:13:02;95057.94;;;12.16;77.72
39555;BME280;25231;48.746;9.234;2022-09-28T12:18:39;95060.56;;;12.63;78.33
39555;BME280;25231;48.746;9.234;2022-09-28T12:23:33;95056.53;;;12.89;76.59
39555;BME280;25231;48.746;9.234;2022-09-28T12:26:03;95051.09;;;12.62;73.66
39555;BME280;25231;48.746;9.234;2022-09-28T12:28:40;95051.22;;;12.76;73.59
39555;BME280;25231;48.746;9.234;2022-09-28T12:31:15;95058.38;;;12.89;74.63
39555;BME280;25231;48.746;9.234;2022-09-28T12:33:49;95052.66;;;12.87;72.90
39555;BME280;25231;48.746;9.234;2022-09-28T12:57:57;95049.88;;;13.86;67.27
39555;BME280;25231;48.746;9.234;2022-09-28T13:00:27;95052.50;;;13.86;65.99
39555;BME280;25231;48.746;9.234;2022-09-28T13:03:19;95051.06;;;13.61;64.76
39555;BME280;25231;48.746;9.234;2022-09-28T13:06:09;95053.16;;;13.78;64.79
39555;BME280;25231;48.746;9.234;2022-09-28T13:19:53;95046.81;;;13.27;64.14
39555;BME280;25231;48.746;9.234;2022-09-28T13:25:15;95042.13;;;13.43;64.88
39555;BME280;25231;48.746;9.234;2022-09-28T13:28:00;95047.97;;;13.21;64.36
39555;BME280;25231;48.746;9.234;2022-09-28T13:30:27;95039.13;;;13.50;63.32
39555;BME280;25231;48.746;9.234;2022-09-28T13:32:54;95041.78;;;13.31;63.68
39555;BME280;25231;48.746;9.234;2022-09-28T13:35:22;95053.66;;;13.28;63.14
39555;BME280;25231;48.746;9.234;2022-09-28T13:43:34;95050.78;;;13.06;64.99
39555;BME280;25231;48.746;9.234;2022-09-28T13:57:14;95063.31;;;13.33;63.32
39555;BME280;25231;48.746;9.234;2022-09-28T14:00:22;95060.78;;;13.28;63.68
39555;BME280;25231;48.746;9.234;2022-09-28T14:05:53;95067.03;;;13.32;62.49
39555;BME280;25231;48.746;9.234;2022-09-28T14:08:31;95063.91;;;13.30;62.36
39555;BME280;25231;48.746;9.234;2022-09-28T14:11:23;95065.31;;;13.22;62.00
39555;BME280;25231;48.746;9.234;2022-09-28T14:16:36;95066.22;;;13.50;61.63
39555;BME280;25231;48.746;9.234;2022-09-28T14:19:19;95069.81;;;13.41;62.44
39555;BME280;25231;48.746;9.234;2022-09-28T14:27:46;95073.38;;;13.12;64.01
39555;BME280;25231;48.746;9.234;2022-09-28T14:30:21;95077.28;;;13.15;63.89
39555;BME280;25231;48.746;9.234;2022-09-28T14:32:55;95075.84;;;13.22;63.78
39555;BME280;25231;48.746;9.234;2022-09-28T14:35:39;95078.47;;;13.04;65.11
39555;BME280;25231;48.746;9.234;2022-09-28T14:38:13;95078.72;;;13.02;64.38
39555;BME280;25231;48.746;9.234;2022-09-28T14:53:57;95080.84;;;13.00;63.27
39555;BME280;25231;48.746;9.234;2022-09-28T14:56:30;95085.19;;;12.91;63.85
39555;BME280;25231;48.746;9.234;2022-09-28T14:58:58;95086.75;;;12.92;63.43
39555;BME280;25231;48.746;9.234;2022-09-28T15:01:24;95080.88;;;12.76;62.67
39555;BME280;25231;48.746;9.234;2022-09-28T15:03:54;95086.22;;;12.71;63.59
39555;BME280;25231;48.746;9.234;2022-09-28T15:06:24;95093.75;;;12.54;64.33
39555;BME280;25231;48.746;9.234;2022-09-28T15:08:51;95083.81;;;12.75;63.40
39555;BME280;25231;48.746;9.234;2022-09-28T15:11:19;95083.16;;;12.40;63.62
39555;BME280;25231;48.746;9.234;2022-09-28T15:13:45;95083.31;;;12.49;64.45
39555;BME280;25231;48.746;9.234;2022-09-28T15:16:12;95080.47;;;12.45;65.21
39555;BME280;25231;48.746;9.234;2022-09-28T15:21:20;95080.47;;;12.69;65.73
39555;BME280;25231;48.746;9.234;2022-09-28T15:23:45;95081.25;;;12.70;66.60
39555;BME280;25231;48.746;9.234;2022-09-28T15:26:30;95081.13;;;12.56;66.57
39555;BME280;25231;48.746;9.234;2022-09-28T15:28:56;95074.97;;;12.66;66.77
39555;BME280;25231;48.746;9.234;2022-09-28T15:31:24;95080.22;;;12.66;67.47
39555;BME280;25231;48.746;9.234;2022-09-28T15:33:50;95077.31;;;12.43;67.16
39555;BME280;25231;48.746;9.234;2022-09-28T15:36:38;95082.31;;;12.45;67.20
39555;BME280;25231;48.746;9.234;2022-09-28T15:39:11;95085.16;;;12.25;68.29
39555;BME280;25231;48.746;9.234;2022-09-28T15:41:39;95084.59;;;12.28;68.82
39555;BME280;25231;48.746;9.234;2022-09-28T15:44:06;95082.16;;;12.36;68.61
39555;BME280;25231;48.746;9.234;2022-09-28T15:46:34;95084.78;;;12.36;68.59
39555;BME280;25231;48.746;9.234;2022-09-28T15:49:00;95094.03;;;12.29;68.00
39555;BME280;25231;48.746;9.234;2022-09-28T15:51:29;95093.00;;;12.30;67.72
39555;BME280;25231;48.746;9.234;2022-09-28T15:54:02;95100.00;;;12.11;68.44
39555;BME280;25231;48.746;9.234;2022-09-28T15:56:29;95101.34;;;12.08;68.37
39555;BME280;25231;48.746;9.234;2022-09-28T15:59:16;95097.50;;;12.24;68.28
39555;BME280;25231;48.746;9.234;2022-09-28T16:01:43;95107.09;;;12.10;69.40
39555;BME280;25231;48.746;9.234;2022-09-28T16:07:15;95097.19;;;12.02;70.56
39555;BME280;25231;48.746;9.234;2022-09-28T16:12:25;95106.03;;;11.82;72.07
39555;BME280;25231;48.746;9.234;2022-09-28T16:14:55;95101.09;;;11.71;72.65